Landels-Hill Big Creek Reserve Entrance, California Weather observations

Data are for 10 minute period ending at time listed.
 Day   Time   Solar   Ave.   Ave.  Ave.  Vector  Max.   Baro.   Total    
  of    of     Rad.   Air    Rel.  Wind   Wind   Wind  Press.  Precip.   
Year   Day            Temp.  Hum.  Speed  Dir.   Gust                    
2015   (PST)  Kw/m2    F      %     mph   deg.    mph    mb.     in.     
-------------------------------------------------------------------------
  57   13:40   0.69   61.1    71    1.8   260     4.3   1010.4    0.00 
  57   13:50   0.68   61.7    68    2.1   270     4.5   1010.2    0.00 
  57   14:00   0.66   62.3    70    1.6   203     4.3   1010.3    0.00 
  57   14:10   0.65   61.5    70    3.0   258     5.8   1010.2    0.00 
  57   14:20   0.63   60.9    73    2.9   268     6.5   1010.1    0.00 
  57   14:30   0.61   61.2    74    2.7   247     5.6   1010.1    0.00 
  57   14:40   0.60   61.0    72    2.6   251     5.8   1009.9    0.00 
  57   14:50   0.56   61.6    70    2.2   249     5.2   1009.9    0.00 
  57   15:00   0.53   62.0    68    1.6   139     3.9   1010.0    0.00 
  57   15:10   0.52   62.3    68    5.4   172     9.1   1009.9    0.00 
  57   15:20   0.46   62.1    70    5.0   180    10.8   1009.8    0.00 
  57   15:30   0.31   62.4    70    4.5    26    11.0   1009.7    0.00 
  57   15:40   0.38   61.5    73    5.5   126    15.7   1009.5    0.00 
  57   15:50   0.32   61.4    74    4.3    57    12.8   1009.4    0.00 
  57   16:00   0.20   61.4    73    4.2   144    11.9   1009.4    0.00 
  57   16:10   0.25   61.1    74    3.1   170     8.1   1009.1    0.00 
  57   16:20   0.20   61.4    73    3.7    50    13.4   1009.1    0.00 
  57   16:30   0.23   61.6    72    3.6    68    11.0   1009.1    0.00 
  57   16:40   0.20   61.8    71    4.4   186     9.4   1009.2    0.00 
  57   16:50   0.19   61.8    71    3.4   196    10.7   1009.1    0.00 
  57   17:00   0.14   61.8    70    4.3   185    11.0   1009.1    0.00 
  57   17:10   0.11   61.1    72    3.7   180     8.3   1008.9    0.00 
  57   17:20   0.09   60.8    72    2.4   198     7.9   1008.8    0.00 
  57   17:30   0.07   60.6    73    2.3   177     7.3   1008.7    0.00 
  57   17:40   0.05   59.8    74    3.8   181     8.1   1008.6    0.00 
  57   17:50   0.03   59.6    74    3.9    77     9.6   1008.6    0.00 
  57   18:00   0.01   59.4    74    3.3    77    10.6   1008.7    0.00 
  57   18:10   0.01   59.1    75    3.1    92    11.0   1008.7    0.00 
  57   18:20   0.00   59.0    75    2.3   149     6.6   1008.8    0.00 
  57   18:30   0.00   58.6    76    2.5   163     6.9   1009.0    0.00 
  57   18:40   0.00   58.4    76    2.4   150     7.5   1009.1    0.00 
  57   18:50   0.00   58.5    75    3.0   119     8.6   1009.2    0.00 
  57   19:00   0.00   58.0    76    2.1    64     6.6   1009.3    0.00 
  57   19:10   0.00   55.6    82    1.4     3     3.9   1009.3    0.00 
  57   19:20   0.00   54.5    86    1.3    55     3.1   1009.4    0.00 
  57   19:30   0.00   53.9    87    1.9    36     4.3   1009.5    0.00 
  57   19:40   0.00   53.5    88    1.4    60     3.9   1009.6    0.00 
  57   19:50   0.00   53.3    89    1.3    47     3.5   1009.6    0.00 
  57   20:00   0.00   53.1    89    1.5    48     3.7   1009.6    0.00 
  57   20:10   0.00   52.6    89    2.0    50     4.2   1009.5    0.00 
  57   20:20   0.00   52.3    90    2.1    44     4.9   1009.5    0.00 
  57   20:30   0.00   52.4    89    1.7    45     4.0   1009.6    0.00 
  57   20:40   0.00   52.0    89    2.0    49     5.0   1009.7    0.00 
  57   20:50   0.00   51.8    89    2.4    40     5.8   1009.6    0.00 
  57   21:00   0.00   51.9    89    2.0    21     4.4   1009.7    0.00 
  57   21:10   0.00   51.3    89    1.9    42     4.5   1009.7    0.00 
  57   21:20   0.00   51.0    90    2.2    40     5.0   1009.6    0.00 
  57   21:30   0.00   50.8    90    2.8    32     7.2   1009.7    0.00 
  57   21:40   0.00   51.0    90    2.6    31     6.4   1009.8    0.00 
  57   21:50   0.00   50.7    89    2.1    40     5.8   1009.9    0.00 
  57   22:00   0.00   50.4    89    2.9    43     5.6   1009.7    0.00 
  57   22:10   0.00   50.6    90    2.2    36     5.0   1009.7    0.00 
  57   22:20   0.00   50.5    89    2.2    45     5.3   1009.5    0.00 
  57   22:30   0.00   50.2    89    2.1    58     5.6   1009.5    0.00 
  57   22:40   0.00   50.1    89    2.3    38     5.6   1009.5    0.00 
  57   22:50   0.00   49.9    89    2.8    41     6.4   1009.3    0.00 
  57   23:00   0.00   50.0    88    2.5    42     5.6   1009.2    0.00 
  57   23:10   0.00   49.7    88    2.0    44     5.7   1009.2    0.00 
  57   23:20   0.00   49.6    89    2.5    37     6.0   1009.3    0.00 
  57   23:30   0.00   49.4    89    2.7    44     7.2   1009.1    0.00 
  57   23:40   0.00   49.4    89    2.6    50     5.3   1009.0    0.00 
  57   23:50   0.00   49.6    88    2.4    48     5.5   1009.1    0.00 
  58    0:00   0.00   49.6    88    2.4    45     4.7   1009.1    0.00 
  58    0:10   0.00   49.8    87    2.4    29     5.8   1009.2    0.00 
  58    0:20   0.00   49.3    87    2.1    54     5.3   1009.2    0.00 
  58    0:30   0.00   49.3    88    2.3    50     6.0   1009.1    0.00 
  58    0:40   0.00   49.6    88    2.8    56     4.8   1009.2    0.00 
  58    0:50   0.00   50.1    86    2.4    52     5.6   1009.0    0.00 
  58    1:00   0.00   49.8    86    2.3    43     4.7   1008.9    0.00 
  58    1:10   0.00   49.7    87    2.5    49     5.0   1008.8    0.00 
  58    1:20   0.00   50.0    87    1.9    35     4.0   1008.7    0.00 
  58    1:30   0.00   49.5    88    2.3    47     4.7   1008.7    0.00 
  58    1:40   0.00   49.7    88    2.0    51     4.8   1008.8    0.00 
  58    1:50   0.00   49.7    87    1.3    37     4.4   1008.8    0.00 
  58    2:00   0.00   50.3    87    1.8    47     7.2   1008.9    0.00 
  58    2:10   0.00   49.7    88    1.9    27     4.9   1008.9    0.00 
  58    2:20   0.00   49.6    88    1.2    11     3.1   1008.8    0.00 
  58    2:30   0.00   49.4    90    1.9    11     3.7   1008.6    0.00 
  58    2:40   0.00   49.0    91    1.8    38     3.7   1008.5    0.00 
  58    2:50   0.00   49.4    92    1.5    63     3.1   1008.4    0.00 
  58    3:00   0.00   49.4    91    1.3    41     4.3   1008.4    0.00 
  58    3:10   0.00   49.4    92    2.6    33     6.5   1008.2    0.00 
  58    3:20   0.00   49.3    92    2.0    32     4.2   1008.0    0.00 
  58    3:30   0.00   49.2    92    2.0    44     5.0   1007.9    0.00 
  58    3:40   0.00   49.3    92    2.5    38     5.5   1007.9    0.00 
  58    3:50   0.00   49.5    92    2.2    35     5.3   1008.1    0.00 
  58    4:00   0.00   49.4    91    1.9    52     5.7   1008.1    0.00 
  58    4:10   0.00   49.0    91    1.8    21     4.7   1008.0    0.00 
  58    4:20   0.00   49.0    92    1.8    39     4.4   1007.9    0.00 
  58    4:30   0.00   48.9    92    2.2    45     5.8   1008.0    0.00 
  58    4:40   0.00   49.0    92    2.3    34     6.1   1007.9    0.00 
  58    4:50   0.00   48.7    92    2.5     8     5.7   1008.0    0.00 
  58    5:00   0.00   48.8    92    2.5    26     6.3   1007.9    0.00 
  58    5:10   0.00   48.7    93    3.2    14     6.5   1007.9    0.00 
  58    5:20   0.00   48.7    93    2.6    21     6.1   1008.0    0.00 
  58    5:30   0.00   48.8    93    2.1    22     5.3   1007.9    0.00 
  58    5:40   0.00   48.9    93    2.1    42     5.5   1008.0    0.00 
  58    5:50   0.00   48.6    93    2.2    35     4.5   1008.1    0.00 
  58    6:00   0.00   48.6    93    2.8    19     6.7   1008.1    0.00 
  58    6:10   0.00   48.5    93    2.7    24     6.0   1008.0    0.00 
  58    6:20   0.00   48.6    93    2.1    48     4.6   1008.0    0.00 
  58    6:30   0.00   48.7    93    2.2    50     5.5   1007.9    0.00 
  58    6:40   0.00   48.4    92    2.4    47     6.8   1007.9    0.00 
  58    6:50   0.01   48.1    93    2.2    30     5.7   1008.1    0.00 
  58    7:00   0.01   48.1    93    2.9    45     7.2   1008.1    0.00 
  58    7:10   0.01   48.2    94    2.3    46     4.4   1008.2    0.00 
  58    7:20   0.01   48.3    94    2.0    37     4.9   1008.3    0.00 
  58    7:30   0.01   48.4    94    2.3    50     5.9   1008.3    0.00 
  58    7:40   0.01   48.5    93    2.7    45     5.6   1008.1    0.00 
  58    7:50   0.01   48.5    93    2.5    49     6.1   1008.1    0.00 
  58    8:00   0.03   48.8    93    2.4    43     5.0   1008.2    0.00 
  58    8:10   0.03   49.1    93    1.4    41     3.7   1008.1    0.00 
  58    8:20   0.03   49.3    92    1.2    36     3.5   1008.2    0.00 
  58    8:30   0.03   50.0    91    1.5    32     6.4   1008.4    0.00 
  58    8:40   0.03   53.2    84    3.3    62     9.2   1008.5    0.00 
  58    8:50   0.03   56.9    71    4.2    65    13.1   1008.5    0.00 
  58    9:00   0.03   57.7    70    3.9    75    13.5   1008.4    0.00 
  58    9:10   0.03   57.8    70    3.7    69    11.7   1008.4    0.00 
  58    9:20   0.03   58.0    70    4.9    72    13.0   1008.3    0.00 
  58    9:30   0.03   58.4    70    4.1    54    11.5   1008.2    0.00 
  58    9:40   0.04   58.5    70    4.0   167    13.1   1008.3    0.00 
  58    9:50   0.04   57.9    73    6.2   170    17.6   1008.3    0.00 
  58   10:00   0.04   57.7    74    7.4    84    17.2   1008.3    0.00 
  58   10:10   0.21   57.8    73    5.4   117    13.7   1008.4    0.00 
  58   10:20   0.55   58.4    73    6.3   144    12.8   1008.4    0.00 
  58   10:30   0.57   59.1    71    7.0   147    16.1   1008.1    0.00 
  58   10:40   0.60   59.4    70    5.2   128    11.8   1008.0    0.00 
  58   10:50   0.61   59.5    71    8.0   163    16.1   1008.0    0.00 
  58   11:00   0.64   59.5    72    6.9   162    14.6   1008.2    0.00 
  58   11:10   0.66   59.4    74    7.2   155    22.4   1008.3    0.00 
  58   11:20   0.65   58.7    75    7.3    78    17.0   1008.3    0.00 
  58   11:30   0.68   59.4    73    7.2   168    20.1   1008.1    0.00 
  58   11:40   0.65   59.5    73    6.7   173    16.2   1008.1    0.00 
  58   11:50   0.70   59.8    71    6.9   169    14.7   1008.0    0.00 
  58   12:00   0.73   59.9    70    6.5   118    16.3   1008.0    0.00 
  58   12:10   0.74   60.1    70    5.4    87    16.2   1007.8    0.00 
  58   12:20   0.74   60.5    70    5.1   167    12.3   1007.7    0.00 
  58   12:30   0.74   60.1    70    7.4    71    20.2   1007.5    0.00 
  58   12:40   0.74   59.9    69    6.2    83    14.2   1007.2    0.00 
  58   12:50   0.72   60.4    68    6.1    89    14.9   1007.0    0.00 
  58   13:00   0.64   60.7    68    4.2   120    14.0   1007.0    0.00 
  58   13:10   0.71   60.5    68    5.3    79    15.3   1007.0    0.00 
  58   13:20   0.53   60.5    68    3.5    91    17.2   1006.9    0.00 
  58   13:30   0.43   60.7    67    3.2   123    10.8   1006.7    0.00 

Return to Big Creek Reserve Entrance graphs page.


Western Regional Climate Center,wrcc@dri.edu